Time;durP1;ratioP1;P1;durP2;ratioP2;P2;SDS_P1;SDS_P2;PMS_P1;PMS_P2;Temp;Humidity;BMP_temperature;BMP_pressure;BME280_temperature;BME280_humidity;BME280_pressure;Samples;Min_cycle;Max_cycle;Signal;HPM_P1;HPM_P2
2021/04/17 00:01:54;;;;;;;11.23;6.72;;;;;;;2.69;66.33;100513.38;4947579;28;20041;-69
2021/04/17 00:04:20;;;;;;;8.85;5.95;;;;;;;2.70;66.21;100510.75;4942877;28;20043;-69
2021/04/17 00:06:46;;;;;;;11.38;6.38;;;;;;;2.72;66.01;100516.81;4955439;28;20039;-70
2021/04/17 00:09:16;;;;;;;10.73;6.75;;;;;;;2.70;66.36;100517.72;4957927;28;20047;-70
2021/04/17 00:11:43;;;;;;;10.55;6.25;;;;;;;2.72;66.14;100516.81;4965584;28;20062;-68
2021/04/17 00:14:12;;;;;;;10.32;6.05;;;;;;;2.76;65.96;100508.13;4953618;28;20039;-67
2021/04/17 00:16:38;;;;;;;10.98;7.15;;;;;;;2.80;65.87;100516.78;4943563;28;20047;-68
2021/04/17 00:19:04;;;;;;;12.07;6.80;;;;;;;2.80;66.15;100511.56;4946895;28;20046;-69
2021/04/17 00:21:29;;;;;;;16.10;6.25;;;;;;;2.80;66.28;100508.97;4957696;28;20048;-51
2021/04/17 00:23:55;;;;;;;9.02;6.05;;;;;;;2.94;65.46;100508.91;4966734;28;20043;-54
2021/04/17 00:26:21;;;;;;;10.05;7.10;;;;;;;3.06;64.88;100513.16;4966607;28;20073;-53
2021/04/17 00:28:46;;;;;;;11.50;6.32;;;;;;;3.17;64.85;100512.19;4966384;28;20154;-53
2021/04/17 00:31:12;;;;;;;11.60;6.20;;;;;;;3.15;64.59;100508.75;4942668;28;20694;-70
2021/04/17 00:33:37;;;;;;;10.45;5.85;;;;;;;3.00;65.40;100511.44;4935057;28;20097;-70
2021/04/17 00:36:03;;;;;;;8.65;5.13;;;;;;;2.89;65.87;100510.66;4959234;28;20050;-69
2021/04/17 00:38:28;;;;;;;11.48;5.93;;;;;;;2.85;65.85;100508.94;4965871;28;20054;-68
2021/04/17 00:40:55;;;;;;;8.23;5.07;;;;;;;2.85;65.72;100508.94;4952133;28;20086;-69
2021/04/17 00:43:22;;;;;;;9.90;6.53;;;;;;;2.82;65.97;100508.97;4951988;28;20035;-69
2021/04/17 00:45:48;;;;;;;8.82;5.20;;;;;;;2.77;66.11;100502.03;4951530;28;20027;-69
2021/04/17 00:48:14;;;;;;;10.00;5.97;;;;;;;2.69;66.40;100503.81;4951783;28;20494;-69
2021/04/17 00:50:40;;;;;;;8.90;5.68;;;;;;;2.66;66.79;100509.06;4951831;28;20811;-69
2021/04/17 00:53:07;;;;;;;9.00;5.70;;;;;;;2.64;66.90;100508.19;4953348;28;20085;-68
2021/04/17 00:55:32;;;;;;;8.82;5.97;;;;;;;2.60;67.36;100510.81;4970834;28;20053;-69
2021/04/17 00:57:58;;;;;;;8.00;5.63;;;;;;;2.51;66.88;100506.50;4970834;28;20502;-69
2021/04/17 01:00:24;;;;;;;9.60;6.32;;;;;;;2.47;67.80;100512.63;4956927;28;20037;-70
2021/04/17 01:02:55;;;;;;;10.02;5.63;;;;;;;2.47;67.13;100515.22;4979671;28;20031;-68
2021/04/17 01:05:24;;;;;;;12.95;6.68;;;;;;;2.45;67.48;100511.75;4960046;28;20486;-69
2021/04/17 01:07:51;;;;;;;10.05;6.57;;;;;;;2.36;68.49;100504.84;4977755;28;20073;-70
2021/04/17 01:10:24;;;;;;;8.40;5.53;;;;;;;2.31;68.45;100509.19;4976610;28;20089;-69
2021/04/17 01:12:54;;;;;;;10.23;6.47;;;;;;;2.23;68.91;100506.63;4980724;28;20483;-69
2021/04/17 01:15:21;;;;;;;11.57;6.72;;;;;;;2.17;69.35;100508.38;4979189;28;20039;-69
2021/04/17 01:17:49;;;;;;;15.13;7.53;;;;;;;2.12;69.02;100509.28;4978202;28;20034;-68
2021/04/17 01:20:18;;;;;;;9.77;6.30;;;;;;;2.08;69.50;100501.50;4978404;28;20027;-70
2021/04/17 01:22:57;;;;;;;11.60;6.78;;;;;;;2.08;69.91;100502.34;4978306;28;20062;-69
2021/04/17 01:25:24;;;;;;;14.77;7.45;;;;;;;2.05;69.27;100509.31;4977466;28;20498;-69
2021/04/17 01:27:50;;;;;;;10.82;7.03;;;;;;;2.03;69.99;100504.09;4978483;28;20026;-69
2021/04/17 01:30:18;;;;;;;10.13;6.45;;;;;;;2.03;69.99;100509.31;4982779;28;20490;-69
2021/04/17 01:32:44;;;;;;;9.85;6.97;;;;;;;1.98;70.16;100508.44;4969124;28;20035;-69
2021/04/17 01:35:12;;;;;;;14.07;7.32;;;;;;;1.95;70.18;100507.59;4964722;28;20035;-68
2021/04/17 01:38:03;;;;;;;11.65;6.30;;;;;;;1.98;70.40;100508.44;4977895;28;20038;-69
2021/04/17 01:40:31;;;;;;;11.32;6.80;;;;;;;1.95;70.45;100505.88;4977609;28;20023;-68
2021/04/17 01:42:56;;;;;;;13.00;6.25;;;;;;;1.93;70.73;100503.25;4978232;28;20054;-69
2021/04/17 01:45:25;;;;;;;11.27;6.63;;;;;;;1.96;70.03;100501.53;4978845;28;20581;-70
2021/04/17 01:47:55;;;;;;;11.57;6.45;;;;;;;1.93;70.29;100499.78;4979657;28;20045;-69
2021/04/17 01:50:22;;;;;;;8.63;6.43;;;;;;;1.85;70.50;100511.97;4959728;28;20040;-70
2021/04/17 01:52:48;;;;;;;11.45;7.18;;;;;;;1.82;70.54;100504.16;4943120;29;20035;-70
2021/04/17 01:55:16;;;;;;;11.70;6.85;;;;;;;1.77;70.85;100504.16;4943901;28;20484;-69
2021/04/17 01:57:42;;;;;;;15.25;7.97;;;;;;;1.78;71.33;100508.50;4940801;29;20047;-69
2021/04/17 02:00:08;;;;;;;15.80;8.38;;;;;;;1.71;71.30;100510.22;4940516;28;20537;-69
2021/04/17 02:02:34;;;;;;;12.77;8.38;;;;;;;1.70;70.71;100510.25;4938450;29;20039;-69
2021/04/17 02:05:00;;;;;;;15.30;7.35;;;;;;;1.61;71.08;100508.50;4957132;28;20063;-69
2021/04/17 02:07:25;;;;;;;10.30;6.70;;;;;;;1.61;72.09;100511.13;4958743;28;20138;-69
2021/04/17 02:09:51;;;;;;;9.52;5.22;;;;;;;1.57;71.59;100504.19;4956830;28;20031;-68
2021/04/17 02:12:16;;;;;;;15.80;7.82;;;;;;;1.49;72.24;100504.19;4973591;28;20454;-68
2021/04/17 02:14:42;;;;;;;10.77;6.47;;;;;;;1.44;72.27;100505.06;4972572;28;20134;-68
2021/04/17 02:17:16;;;;;;;8.65;6.78;;;;;;;1.40;71.74;100500.72;4970357;28;20039;-68
2021/04/17 02:20:01;;;;;;;14.48;7.72;;;;;;;1.37;72.00;100498.13;4957809;28;20039;-68
2021/04/17 02:22:26;;;;;;;12.27;7.20;;;;;;;1.45;71.92;100505.06;4955363;28;20036;-69
2021/04/17 02:24:53;;;;;;;12.30;6.97;;;;;;;1.43;71.49;100496.41;4954493;28;20039;-69
2021/04/17 02:27:19;;;;;;;11.88;7.53;;;;;;;1.39;72.34;100501.59;4954479;28;20098;-69
2021/04/17 02:29:50;;;;;;;12.68;6.68;;;;;;;1.36;71.93;100501.63;4955205;28;20419;-68
2021/04/17 02:32:16;;;;;;;15.70;7.78;;;;;;;1.34;72.16;100499.00;4937804;28;20036;-68
2021/04/17 02:34:42;;;;;;;9.32;6.70;;;;;;;1.26;72.72;100495.56;4954295;28;20070;-68
2021/04/17 02:37:09;;;;;;;9.68;7.28;;;;;;;1.26;72.72;100495.56;4966404;28;20177;-68
2021/04/17 02:39:34;;;;;;;11.88;7.03;;;;;;;1.23;72.84;100495.53;4954302;28;20042;-68
2021/04/17 02:42:00;;;;;;;10.80;7.25;;;;;;;1.26;72.32;100495.56;4962316;28;20122;-69
2021/04/17 02:44:25;;;;;;;10.65;7.43;;;;;;;1.26;72.15;100491.22;4973070;28;20441;-68
2021/04/17 02:46:50;;;;;;;15.25;7.68;;;;;;;1.20;72.75;100498.13;4973304;28;20039;-68
2021/04/17 02:49:16;;;;;;;14.50;7.47;;;;;;;1.16;72.48;100491.22;4973052;28;20455;-69
2021/04/17 02:51:41;;;;;;;14.18;7.72;;;;;;;1.09;72.83;100498.13;4973144;28;20220;-67
2021/04/17 02:54:06;;;;;;;8.23;5.75;;;;;;;1.02;73.29;100497.25;4964965;28;20056;-68
2021/04/17 02:56:32;;;;;;;10.43;6.70;;;;;;;1.09;73.60;100498.13;4964976;28;20426;-68
2021/04/17 02:58:57;;;;;;;11.85;6.35;;;;;;;1.09;73.07;100503.31;4958168;28;20036;-68
2021/04/17 03:01:22;;;;;;;10.93;7.13;;;;;;;1.02;73.39;100497.25;4962799;28;20034;-68
2021/04/17 03:03:48;;;;;;;9.65;5.65;;;;;;;1.04;73.25;100498.13;4973307;28;20043;-68
2021/04/17 03:06:13;;;;;;;19.73;8.88;;;;;;;1.05;73.38;100502.44;4972289;28;20039;-68
2021/04/17 03:08:39;;;;;;;9.40;6.32;;;;;;;1.04;72.75;100500.72;4972470;28;20085;-69
2021/04/17 03:11:04;;;;;;;12.07;7.88;;;;;;;1.02;72.87;100502.44;4972484;28;20073;-69
2021/04/17 03:13:30;;;;;;;10.25;7.47;;;;;;;0.98;73.40;100499.84;4942435;28;20142;-69
2021/04/17 03:15:55;;;;;;;10.90;5.75;;;;;;;0.95;73.91;100497.25;4961515;28;20046;-69
2021/04/17 03:18:21;;;;;;;10.82;6.88;;;;;;;0.93;73.40;100494.63;4972612;28;20039;-69
2021/04/17 03:20:47;;;;;;;15.07;7.63;;;;;;;0.94;73.66;100492.94;4971934;28;20486;-69
2021/04/17 03:23:12;;;;;;;14.07;7.63;;;;;;;0.95;73.05;100485.13;4970995;28;20059;-68
2021/04/17 03:25:38;;;;;;;9.48;5.40;;;;;;;1.00;72.79;100482.53;4960001;28;20047;-68
2021/04/17 03:28:03;;;;;;;9.00;6.60;;;;;;;0.94;73.59;100491.19;4971116;28;20062;-69
2021/04/17 03:30:29;;;;;;;15.63;8.00;;;;;;;0.87;73.49;100484.25;4966336;28;20039;-68
2021/04/17 03:33:00;;;;;;;11.65;7.90;;;;;;;0.82;74.18;100492.03;4952845;28;20065;-69
2021/04/17 03:35:26;;;;;;;11.05;7.05;;;;;;;0.87;73.77;100486.84;4952195;28;20054;-69
2021/04/17 03:37:52;;;;;;;12.93;7.53;;;;;;;0.84;73.20;100492.06;4935426;28;20439;-68
2021/04/17 03:40:18;;;;;;;17.10;9.15;;;;;;;0.81;73.20;100499.81;4952620;28;20038;-68
2021/04/17 03:42:43;;;;;;;13.30;8.23;;;;;;;0.78;73.47;100494.63;4958854;28;20058;-68
2021/04/17 03:45:10;;;;;;;12.50;8.05;;;;;;;0.77;73.13;100498.09;4971126;28;20043;-68
2021/04/17 03:47:35;;;;;;;13.88;7.40;;;;;;;0.78;73.84;100499.81;4971576;28;20398;-68
2021/04/17 03:50:02;;;;;;;14.73;6.47;;;;;;;0.79;73.33;100501.56;4972028;28;20035;-69
2021/04/17 03:52:27;;;;;;;13.43;8.00;;;;;;;0.79;73.73;100499.81;4971572;28;20592;-69
2021/04/17 03:54:52;;;;;;;12.88;6.22;;;;;;;0.81;73.05;100498.09;4971682;28;20042;-68
2021/04/17 03:57:18;;;;;;;9.98;6.50;;;;;;;0.82;73.39;100498.97;4946082;28;20503;-68
2021/04/17 03:59:45;;;;;;;10.18;6.10;;;;;;;0.82;73.84;100509.34;4932910;29;20708;-68
2021/04/17 04:02:11;;;;;;;13.55;6.18;;;;;;;0.80;73.45;100508.47;4932979;29;20044;-69
2021/04/17 04:04:36;;;;;;;11.85;7.97;;;;;;;0.76;73.65;100509.31;4935606;29;20039;-69
2021/04/17 04:07:02;;;;;;;11.32;7.45;;;;;;;0.64;73.75;100508.44;4914340;29;20658;-69
2021/04/17 04:09:27;;;;;;;15.45;8.52;;;;;;;0.58;73.76;100511.00;4932756;29;20074;-68
2021/04/17 04:11:53;;;;;;;9.98;6.63;;;;;;;0.55;74.57;100513.59;4925212;29;20427;-69
2021/04/17 04:14:19;;;;;;;13.63;7.00;;;;;;;0.58;73.85;100508.41;4908265;29;20083;-68
2021/04/17 04:16:44;;;;;;;14.50;9.85;;;;;;;0.55;73.60;100512.72;4915692;29;20036;-69
2021/04/17 04:19:10;;;;;;;10.35;7.32;;;;;;;0.56;74.07;100517.06;4933669;29;20055;-68
2021/04/17 04:21:36;;;;;;;13.68;7.68;;;;;;;0.51;73.90;100511.84;4934302;29;20083;-69
2021/04/17 04:24:01;;;;;;;15.13;7.32;;;;;;;0.50;74.87;100520.50;4934469;28;20040;-69
2021/04/17 04:26:27;;;;;;;16.65;7.22;;;;;;;0.51;74.17;100516.16;4907600;29;20483;-69
2021/04/17 04:28:52;;;;;;;14.10;6.80;;;;;;;0.51;74.01;100516.16;4934661;29;20039;-69
2021/04/17 04:31:18;;;;;;;12.68;7.25;;;;;;;0.55;74.06;100520.50;4917702;29;20031;-69
2021/04/17 04:33:43;;;;;;;13.05;7.22;;;;;;;0.54;73.73;100519.66;4935723;29;20047;-69
2021/04/17 04:36:08;;;;;;;10.57;6.78;;;;;;;0.55;74.39;100525.69;4935275;29;20519;-69
2021/04/17 04:38:34;;;;;;;12.60;7.85;;;;;;;0.56;73.46;100528.28;4943784;28;20047;-70
2021/04/17 04:41:09;;;;;;;14.20;8.30;;;;;;;0.55;73.99;100523.97;4946289;28;20055;-69
2021/04/17 04:43:37;;;;;;;13.30;7.55;;;;;;;0.58;73.50;100525.72;4968236;28;20076;-68
2021/04/17 04:46:03;;;;;;;12.65;7.88;;;;;;;0.56;74.19;100530.88;4962236;28;20038;-68
2021/04/17 04:48:31;;;;;;;18.65;8.45;;;;;;;0.50;73.90;100536.06;4963011;28;20041;-68
2021/04/17 04:50:57;;;;;;;13.00;7.70;;;;;;;0.48;73.83;100537.78;4972845;28;20030;-67
2021/04/17 04:53:22;;;;;;;11.38;7.32;;;;;;;0.46;73.78;100536.03;4971914;28;20041;-69
2021/04/17 04:55:48;;;;;;;20.90;10.13;;;;;;;0.43;74.76;100532.56;4972360;28;20031;-70
2021/04/17 04:58:13;;;;;;;11.20;7.88;;;;;;;0.41;74.12;100534.28;4972921;28;20039;-70
2021/04/17 05:00:39;;;;;;;12.00;7.63;;;;;;;0.43;74.43;100536.91;4954006;28;20046;-68
2021/04/17 05:03:05;;;;;;;12.85;8.27;;;;;;;0.44;73.99;100538.63;4971660;28;20031;-69
2021/04/17 05:05:30;;;;;;;10.55;7.95;;;;;;;0.47;74.52;100538.66;4953553;28;20121;-68
2021/04/17 05:07:56;;;;;;;17.70;7.10;;;;;;;0.55;74.03;100544.72;4971498;28;20546;-68
2021/04/17 05:10:21;;;;;;;9.88;6.50;;;;;;;0.65;73.58;100537.84;4972255;28;20035;-68
2021/04/17 05:12:47;;;;;;;10.15;6.45;;;;;;;0.74;73.01;100531.78;4970753;28;20035;-68
2021/04/17 05:15:13;;;;;;;17.02;7.80;;;;;;;0.80;72.64;100526.63;4959942;28;20093;-68
2021/04/17 05:17:38;;;;;;;12.65;8.00;;;;;;;0.74;73.40;100532.69;4952769;28;20035;-68
2021/04/17 05:20:05;;;;;;;13.40;8.20;;;;;;;0.79;73.05;100530.09;4954148;28;20031;-70
2021/04/17 05:22:30;;;;;;;15.55;9.20;;;;;;;0.90;72.80;100533.56;4971158;28;20038;-68
2021/04/17 05:24:56;;;;;;;12.30;8.82;;;;;;;1.03;71.78;100531.88;4970483;28;20038;-69
2021/04/17 05:27:21;;;;;;;17.08;10.70;;;;;;;1.05;72.53;100538.78;4953743;28;20034;-68
2021/04/17 05:29:47;;;;;;;17.95;11.05;;;;;;;1.10;72.13;100536.22;4970446;28;20062;-68
2021/04/17 05:32:12;;;;;;;14.88;9.88;;;;;;;1.15;71.66;100531.88;4969872;28;20038;-68
2021/04/17 05:34:38;;;;;;;14.18;10.00;;;;;;;1.24;71.75;100537.09;4970696;28;20034;-69
2021/04/17 05:37:03;;;;;;;14.48;10.07;;;;;;;1.45;70.73;100531.06;4970650;28;20050;-67
2021/04/17 05:39:28;;;;;;;16.08;9.30;;;;;;;1.60;70.47;100537.09;4970450;28;20089;-69
2021/04/17 05:41:54;;;;;;;10.82;7.82;;;;;;;1.80;69.86;100530.16;4970658;28;20035;-69
2021/04/17 05:44:19;;;;;;;20.25;8.95;;;;;;;1.96;69.38;100530.13;4952757;28;20109;-68
2021/04/17 05:46:45;;;;;;;18.88;8.95;;;;;;;2.05;68.68;100535.31;4969900;28;20125;-70
2021/04/17 05:49:11;;;;;;;12.90;8.38;;;;;;;2.14;68.94;100538.75;4972335;28;20114;-70
2021/04/17 05:51:38;;;;;;;11.68;8.52;;;;;;;2.30;68.68;100533.50;4974395;28;20117;-70
2021/04/17 05:54:05;;;;;;;10.68;8.55;;;;;;;2.62;67.58;100538.56;4939817;28;20031;-70
2021/04/17 05:56:30;;;;;;;14.93;9.15;;;;;;;2.80;66.85;100535.00;4935119;29;20059;-70
2021/04/17 05:58:56;;;;;;;14.88;8.70;;;;;;;2.75;67.30;100539.38;4918186;29;20074;-69
2021/04/17 06:01:22;;;;;;;13.80;7.68;;;;;;;2.83;67.44;100532.41;4936142;29;20038;-70
2021/04/17 06:03:47;;;;;;;14.60;9.60;;;;;;;3.04;66.98;100530.53;4939464;28;20093;-69
2021/04/17 06:06:13;;;;;;;15.63;7.70;;;;;;;3.22;66.26;100536.50;4954308;28;20047;-69
2021/04/17 06:08:38;;;;;;;13.75;7.63;;;;;;;3.39;66.01;100538.09;4921465;28;20046;-69
2021/04/17 06:11:07;;;;;;;13.70;9.82;;;;;;;3.55;65.71;100537.09;4954544;28;20038;-69
2021/04/17 06:13:34;;;;;;;12.20;9.52;;;;;;;3.62;65.12;100533.56;4952667;28;20482;-69
2021/04/17 06:16:05;;;;;;;12.40;8.50;;;;;;;3.96;64.66;100530.63;4965435;28;20043;-69
2021/04/17 06:18:31;;;;;;;16.35;8.57;;;;;;;4.18;63.96;100541.69;4948482;28;20051;-68
2021/04/17 06:20:57;;;;;;;14.40;9.93;;;;;;;4.34;63.74;100538.94;4955098;28;20041;-69
2021/04/17 06:23:22;;;;;;;16.60;7.95;;;;;;;4.54;62.61;100536.09;4957023;28;20038;-68
2021/04/17 06:25:48;;;;;;;14.48;8.88;;;;;;;4.82;62.25;100536.56;4973596;28;20391;-68
2021/04/17 06:28:16;;;;;;;12.32;9.50;;;;;;;4.99;61.95;100547.66;4974319;28;20065;-68
2021/04/17 06:30:42;;;;;;;16.58;10.32;;;;;;;5.31;61.11;100534.09;4956128;28;20035;-69
2021/04/17 06:33:09;;;;;;;15.63;9.05;;;;;;;5.80;59.68;100535.91;4954628;28;20107;-70
2021/04/17 06:35:35;;;;;;;12.00;8.45;;;;;;;6.33;58.05;100535.00;4954358;28;20101;-70
2021/04/17 06:38:00;;;;;;;13.85;7.93;;;;;;;6.81;55.89;100530.47;4954954;28;20091;-70
2021/04/17 06:40:25;;;;;;;13.13;9.15;;;;;;;7.27;54.57;100533.81;4957727;28;20040;-71
2021/04/17 06:42:52;;;;;;;11.02;8.13;;;;;;;7.63;53.73;100528.56;4957695;28;20058;-70
2021/04/17 06:45:21;;;;;;;18.50;9.00;;;;;;;8.24;51.90;100531.34;4945578;28;20097;-70
2021/04/17 06:47:46;;;;;;;16.98;9.18;;;;;;;8.70;50.24;100525.66;4975071;28;20053;-70
2021/04/17 06:50:12;;;;;;;14.18;8.55;;;;;;;8.86;49.57;100526.06;4961730;28;20059;-68
2021/04/17 06:52:41;;;;;;;10.20;7.20;;;;;;;8.91;49.34;100529.44;4954716;28;20035;-69
2021/04/17 06:55:08;;;;;;;15.00;7.68;;;;;;;9.46;48.12;100525.03;4937152;28;20073;-69
2021/04/17 06:57:34;;;;;;;11.10;8.18;;;;;;;9.48;46.81;100527.63;4954039;28;20439;-69
2021/04/17 07:00:01;;;;;;;20.17;11.73;;;;;;;9.59;47.62;100527.28;4953857;28;20042;-69
2021/04/17 07:02:27;;;;;;;12.10;8.77;;;;;;;9.77;46.87;100533.69;4968024;28;20034;-71
2021/04/17 07:04:53;;;;;;;11.05;8.05;;;;;;;9.76;46.82;100527.56;4973447;28;20037;-70
2021/04/17 07:07:18;;;;;;;21.73;8.50;;;;;;;9.91;46.06;100531.44;4972922;28;20031;-69
2021/04/17 07:09:44;;;;;;;9.63;7.28;;;;;;;10.18;45.72;100523.50;4946385;28;20038;-68
2021/04/17 07:12:09;;;;;;;14.23;8.70;;;;;;;10.13;45.69;100533.34;4948371;28;20491;-69
2021/04/17 07:14:43;;;;;;;18.52;8.60;;;;;;;10.13;45.26;100525.44;4943600;28;20122;-68
2021/04/17 07:17:09;;;;;;;11.90;7.97;;;;;;;10.12;45.65;100523.72;4944224;28;20562;-69
2021/04/17 07:19:56;;;;;;;13.00;7.18;;;;;;;10.30;44.93;100520.44;4927388;28;20122;-68
2021/04/17 07:22:27;;;;;;;14.85;8.02;;;;;;;10.51;44.39;100527.56;4940639;28;20047;-69
2021/04/17 07:24:54;;;;;;;15.90;7.10;;;;;;;10.60;44.39;100523.72;4937356;29;20050;-67
2021/04/17 07:27:33;;;;;;;24.17;7.35;;;;;;;10.79;43.54;100523.88;4933238;29;20043;-69
2021/04/17 07:30:01;;;;;;;15.20;7.70;;;;;;;10.91;42.70;100520.78;4935732;28;20123;-69
2021/04/17 07:32:26;;;;;;;9.88;7.13;;;;;;;11.17;42.41;100521.53;4944900;28;20134;-68
2021/04/17 07:35:05;;;;;;;13.27;7.78;;;;;;;11.20;42.14;100516.16;4942840;28;20433;-69
2021/04/17 07:37:31;;;;;;;13.20;7.45;;;;;;;11.49;41.42;100522.84;4941547;28;20036;-69
2021/04/17 07:39:56;;;;;;;8.75;7.05;;;;;;;11.53;40.50;100521.81;4935093;29;20027;-69
2021/04/17 07:42:35;;;;;;;10.10;7.30;;;;;;;11.42;41.66;100520.53;4938847;28;20032;-69
2021/04/17 07:45:00;;;;;;;14.77;7.65;;;;;;;11.51;41.23;100517.53;4933765;29;20400;-69
2021/04/17 07:47:33;;;;;;;11.05;6.80;;;;;;;11.67;40.86;100523.03;4940252;28;20035;-68
2021/04/17 07:50:08;;;;;;;12.75;7.60;;;;;;;12.14;40.70;100515.75;4952477;28;20043;-68
2021/04/17 07:52:34;;;;;;;13.25;7.10;;;;;;;12.16;40.91;100515.69;4947024;28;20042;-69
2021/04/17 07:54:59;;;;;;;15.40;6.97;;;;;;;12.45;40.20;100514.34;4944859;28;20043;-69
2021/04/17 07:57:32;;;;;;;19.65;8.80;;;;;;;12.56;38.19;100511.25;4931157;28;20035;-69
2021/04/17 07:59:58;;;;;;;8.55;6.05;;;;;;;13.23;36.95;100512.47;4935271;28;20035;-70
2021/04/17 08:02:24;;;;;;;11.77;5.93;;;;;;;12.99;37.66;100519.81;4953095;28;20046;-67
2021/04/17 08:04:50;;;;;;;13.40;6.38;;;;;;;13.35;36.49;100503.97;4952167;28;20039;-68
2021/04/17 08:07:17;;;;;;;9.88;6.25;;;;;;;13.95;35.39;100509.78;4951924;28;20123;-68
2021/04/17 08:09:43;;;;;;;14.25;6.10;;;;;;;14.26;34.68;100510.81;4952569;28;20482;-69
2021/04/17 08:12:10;;;;;;;9.88;5.88;;;;;;;14.28;34.52;100508.94;4934824;28;20062;-68
2021/04/17 08:14:36;;;;;;;16.58;6.95;;;;;;;14.77;33.42;100513.44;4947210;28;20050;-71
2021/04/17 08:17:01;;;;;;;10.40;7.05;;;;;;;14.67;33.15;100515.75;4943027;28;20031;-68
2021/04/17 08:19:26;;;;;;;14.52;6.93;;;;;;;14.84;33.15;100513.94;4952553;28;20038;-68
2021/04/17 08:21:52;;;;;;;8.07;5.72;;;;;;;14.78;32.70;100507.19;4952401;28;20034;-68
2021/04/17 08:24:25;;;;;;;10.80;6.15;;;;;;;15.19;32.90;100504.00;4952397;28;20138;-68
2021/04/17 08:26:53;;;;;;;8.13;5.28;;;;;;;15.01;32.00;100509.41;4951482;28;20038;-69
2021/04/17 08:29:46;;;;;;;10.45;6.32;;;;;;;15.27;32.22;100499.09;4956008;28;20031;-68
2021/04/17 08:32:31;;;;;;;16.38;6.75;;;;;;;15.15;32.62;100499.81;4962521;28;20046;-64
2021/04/17 08:35:12;;;;;;;8.45;4.38;;;;;;;15.56;31.56;100499.22;4965912;28;20038;-66
2021/04/17 08:37:50;;;;;;;9.82;5.00;;;;;;;15.73;29.88;100501.78;4971802;28;20110;-64
2021/04/17 08:40:35;;;;;;;8.05;4.53;;;;;;;15.70;29.58;100495.78;4971597;28;20062;-65
2021/04/17 08:43:00;;;;;;;11.02;5.32;;;;;;;15.61;31.05;100505.97;4971334;28;20031;-64
2021/04/17 08:45:26;;;;;;;11.32;5.43;;;;;;;15.26;30.56;100500.06;4971433;28;20463;-63
2021/04/17 08:47:57;;;;;;;6.22;4.32;;;;;;;14.85;30.60;100494.44;4971034;28;20027;-63
2021/04/17 08:50:26;;;;;;;8.20;4.78;;;;;;;14.54;30.37;100496.94;4970915;28;20030;-66
2021/04/17 08:53:09;;;;;;;8.15;4.38;;;;;;;14.64;30.90;100485.84;4971029;28;20442;-65
2021/04/17 08:55:37;;;;;;;8.25;4.50;;;;;;;14.94;31.14;100499.19;4971824;28;20035;-64
2021/04/17 08:58:29;;;;;;;8.27;4.60;;;;;;;14.94;29.38;100493.88;4973157;28;20046;-64
2021/04/17 09:00:54;;;;;;;10.23;3.97;;;;;;;15.26;28.93;100502.72;4969623;28;20043;-66
2021/04/17 09:03:46;;;;;;;11.25;4.32;;;;;;;15.37;29.80;100491.47;4944251;28;20039;-65
2021/04/17 09:06:20;;;;;;;9.85;4.78;;;;;;;15.39;30.10;100492.25;4959650;28;20157;-66
2021/04/17 09:09:21;;;;;;;7.57;4.22;;;;;;;15.74;29.83;100492.84;4965546;28;20030;-66
2021/04/17 09:12:06;;;;;;;9.05;5.85;;;;;;;16.05;29.62;100494.53;4965517;28;20503;-66
2021/04/17 09:14:36;;;;;;;8.80;5.03;;;;;;;16.26;29.11;100491.50;4965296;28;20062;-65
2021/04/17 09:17:05;;;;;;;9.02;4.47;;;;;;;16.40;28.90;100496.81;4965062;28;20035;-67
2021/04/17 09:19:44;;;;;;;7.28;4.70;;;;;;;16.74;28.89;100482.25;4947709;28;20050;-67
2021/04/17 09:22:24;;;;;;;11.70;4.93;;;;;;;16.87;27.23;100487.69;4927732;29;20522;-65
2021/04/17 09:24:51;;;;;;;11.70;4.95;;;;;;;17.30;27.03;100489.34;4931851;29;20099;-64
2021/04/17 09:27:37;;;;;;;11.60;4.78;;;;;;;17.38;26.36;100487.03;4931132;29;20058;-66
2021/04/17 09:30:07;;;;;;;11.80;5.90;;;;;;;17.54;26.03;100485.03;4931750;29;20055;-65
2021/04/17 09:32:45;;;;;;;11.18;6.15;;;;;;;17.62;26.47;100484.53;4931561;29;20070;-65
2021/04/17 09:35:21;;;;;;;7.57;5.57;;;;;;;18.02;26.08;100469.38;4937802;28;20110;-65
2021/04/17 09:37:58;;;;;;;8.75;5.15;;;;;;;18.57;25.39;100475.28;4959700;28;20038;-66
2021/04/17 09:40:38;;;;;;;7.22;6.03;;;;;;;18.41;25.66;100472.00;4955347;28;20126;-65
2021/04/17 09:43:07;;;;;;;7.03;5.38;;;;;;;18.52;24.68;100472.09;4951123;28;20181;-67
2021/04/17 09:45:39;;;;;;;8.07;5.57;;;;;;;16.41;28.16;100479.91;4969072;28;20464;-66
2021/04/17 09:48:07;;;;;;;9.57;5.18;;;;;;;16.99;27.47;100471.88;4968448;28;20046;-66
2021/04/17 09:50:34;;;;;;;8.23;5.18;;;;;;;17.24;27.28;100463.97;4968251;28;20383;-65
2021/04/17 09:53:11;;;;;;;8.23;5.25;;;;;;;15.87;28.83;100467.25;4968645;28;20067;-66
2021/04/17 09:55:49;;;;;;;16.25;5.22;;;;;;;16.12;28.62;100456.91;4968044;28;20034;-67
2021/04/17 09:58:27;;;;;;;8.25;5.82;;;;;;;15.79;29.15;100461.53;4967684;28;20074;-68
2021/04/17 10:00:54;;;;;;;10.35;5.72;;;;;;;15.56;29.20;100464.69;4953923;28;20027;-69
2021/04/17 10:03:29;;;;;;;9.23;5.55;;;;;;;15.19;30.22;100462.38;4936549;28;20139;-68
2021/04/17 10:05:54;;;;;;;8.25;5.32;;;;;;;15.79;30.22;100458.88;4929133;29;20403;-71
2021/04/17 10:08:28;;;;;;;7.88;5.15;;;;;;;15.55;29.79;100452.31;4932095;28;20046;-70
2021/04/17 10:10:54;;;;;;;10.00;5.45;;;;;;;14.66;30.02;100452.13;4929500;29;20027;-69
2021/04/17 10:13:42;;;;;;;11.93;5.85;;;;;;;14.37;31.11;100443.91;4912414;29;20095;-70
2021/04/17 10:16:09;;;;;;;12.82;5.22;;;;;;;14.07;31.36;100441.13;4928768;29;20067;-68
2021/04/17 10:18:36;;;;;;;8.10;5.50;;;;;;;13.78;31.91;100446.16;4932093;28;20198;-70
2021/04/17 10:21:03;;;;;;;5.85;3.97;;;;;;;13.48;30.72;100444.16;4938909;28;20039;-69
2021/04/17 10:23:28;;;;;;;5.72;4.20;;;;;;;13.91;29.94;100441.94;4948677;28;20706;-70
2021/04/17 10:25:53;;;;;;;7.07;4.10;;;;;;;14.09;28.80;100440.09;4931432;29;20038;-69
2021/04/17 10:28:22;;;;;;;9.35;4.90;;;;;;;13.25;30.34;100431.19;4947848;28;20443;-68
2021/04/17 10:30:51;;;;;;;6.45;4.13;;;;;;;12.92;31.44;100429.28;4939155;28;20039;-69
2021/04/17 10:33:22;;;;;;;8.80;4.53;;;;;;;14.43;29.72;100438.28;4956130;28;20042;-70
2021/04/17 10:35:48;;;;;;;8.85;5.60;;;;;;;16.25;26.96;100431.25;4958886;28;20138;-70
2021/04/17 10:38:31;;;;;;;6.18;4.40;;;;;;;17.37;25.93;100424.00;4959078;28;20058;-70
2021/04/17 10:40:59;;;;;;;8.82;4.80;;;;;;;17.43;25.13;100422.78;4967736;28;20089;-69
2021/04/17 10:43:24;;;;;;;12.90;5.45;;;;;;;16.90;26.14;100412.03;4956339;28;20047;-69
2021/04/17 10:45:56;;;;;;;5.45;4.22;;;;;;;16.34;26.80;100406.72;4948416;28;20444;-69
2021/04/17 10:48:24;;;;;;;11.35;4.93;;;;;;;15.35;28.61;100418.97;4947631;28;20046;-70
2021/04/17 10:51:17;;;;;;;6.28;4.53;;;;;;;14.95;28.84;100414.16;4937520;28;20110;-70
2021/04/17 10:53:45;;;;;;;7.97;4.70;;;;;;;14.92;29.29;100413.50;4947424;28;20083;-70
2021/04/17 10:56:21;;;;;;;7.93;4.70;;;;;;;14.61;29.37;100409.91;4947933;28;20515;-71
2021/04/17 10:59:08;;;;;;;6.88;4.80;;;;;;;14.28;30.35;100407.31;4948768;28;20045;-70
2021/04/17 11:01:37;;;;;;;7.65;4.70;;;;;;;14.00;31.28;100398.16;4947280;28;20051;-70
2021/04/17 11:04:04;;;;;;;9.55;4.20;;;;;;;13.72;30.76;100404.09;4947969;28;20057;-68
2021/04/17 11:06:32;;;;;;;5.97;4.70;;;;;;;13.29;31.64;100393.03;4948089;28;20152;-68
2021/04/17 11:09:06;;;;;;;15.52;5.07;;;;;;;13.29;32.50;100393.94;4947982;28;20039;-69
2021/04/17 11:11:31;;;;;;;24.48;6.18;;;;;;;12.77;32.96;100396.44;4947607;28;20039;-69
2021/04/17 11:14:00;;;;;;;5.72;4.25;;;;;;;12.25;33.70;100389.22;4948110;28;20117;-68
2021/04/17 11:16:42;;;;;;;10.02;5.75;;;;;;;12.55;33.74;100391.38;4947373;28;20035;-70
2021/04/17 11:19:23;;;;;;;10.85;4.00;;;;;;;12.99;32.37;100387.47;4947427;28;20047;-68
2021/04/17 11:22:07;;;;;;;7.72;3.88;;;;;;;13.21;32.24;100377.50;4947522;28;20042;-67
2021/04/17 11:24:32;;;;;;;6.10;3.78;;;;;;;13.17;32.42;100375.97;4947227;28;20126;-68
2021/04/17 11:26:58;;;;;;;10.68;4.20;;;;;;;12.83;33.33;100382.09;4947162;28;20126;-70
2021/04/17 11:29:23;;;;;;;8.15;3.95;;;;;;;12.82;32.91;100375.94;4964363;28;20043;-69
2021/04/17 11:31:48;;;;;;;8.63;4.60;;;;;;;12.87;32.83;100384.50;4956502;28;20031;-69